sensor_id;sensor_type;location;lat;lon;timestamp;temperature;humidity
62259;DHT22;48241;48.824;10.102;2023-11-21T00:00:51;9.70;95.80
62259;DHT22;48241;48.824;10.102;2023-11-21T00:03:17;10.00;96.10
62259;DHT22;48241;48.824;10.102;2023-11-21T00:05:44;9.60;95.80
62259;DHT22;48241;48.824;10.102;2023-11-21T00:08:09;9.80;96.00
62259;DHT22;48241;48.824;10.102;2023-11-21T00:10:36;11.20;96.10
62259;DHT22;48241;48.824;10.102;2023-11-21T00:13:03;9.80;96.50
62259;DHT22;48241;48.824;10.102;2023-11-21T00:15:29;10.00;96.10
62259;DHT22;48241;48.824;10.102;2023-11-21T00:17:54;9.40;96.30
62259;DHT22;48241;48.824;10.102;2023-11-21T00:20:20;9.70;96.00
62259;DHT22;48241;48.824;10.102;2023-11-21T00:22:45;9.80;95.70
62259;DHT22;48241;48.824;10.102;2023-11-21T00:25:12;10.30;96.10
62259;DHT22;48241;48.824;10.102;2023-11-21T00:27:39;11.30;96.30
62259;DHT22;48241;48.824;10.102;2023-11-21T00:30:05;9.80;96.10
62259;DHT22;48241;48.824;10.102;2023-11-21T00:32:31;9.80;95.60
62259;DHT22;48241;48.824;10.102;2023-11-21T00:34:56;10.10;95.70
62259;DHT22;48241;48.824;10.102;2023-11-21T00:37:22;10.00;96.30
62259;DHT22;48241;48.824;10.102;2023-11-21T00:39:49;9.70;96.70
62259;DHT22;48241;48.824;10.102;2023-11-21T00:42:14;9.50;97.20
62259;DHT22;48241;48.824;10.102;2023-11-21T00:44:40;9.90;96.50
62259;DHT22;48241;48.824;10.102;2023-11-21T00:47:05;9.70;96.70
62259;DHT22;48241;48.824;10.102;2023-11-21T00:49:31;10.10;96.20
62259;DHT22;48241;48.824;10.102;2023-11-21T00:51:57;10.10;95.90
62259;DHT22;48241;48.824;10.102;2023-11-21T00:54:23;10.00;95.80
62259;DHT22;48241;48.824;10.102;2023-11-21T00:56:48;10.00;96.10
62259;DHT22;48241;48.824;10.102;2023-11-21T00:59:14;10.10;96.10
62259;DHT22;48241;48.824;10.102;2023-11-21T01:01:40;10.20;95.70
62259;DHT22;48241;48.824;10.102;2023-11-21T01:04:05;9.80;95.70
62259;DHT22;48241;48.824;10.102;2023-11-21T01:06:32;10.10;96.10
62259;DHT22;48241;48.824;10.102;2023-11-21T01:08:57;9.90;95.90
62259;DHT22;48241;48.824;10.102;2023-11-21T01:11:23;10.00;96.10
62259;DHT22;48241;48.824;10.102;2023-11-21T01:13:48;9.80;96.00
62259;DHT22;48241;48.824;10.102;2023-11-21T01:16:14;9.60;96.30
62259;DHT22;48241;48.824;10.102;2023-11-21T01:18:39;10.50;96.20
62259;DHT22;48241;48.824;10.102;2023-11-21T01:21:05;9.50;96.30
62259;DHT22;48241;48.824;10.102;2023-11-21T01:23:30;9.30;96.40
62259;DHT22;48241;48.824;10.102;2023-11-21T01:25:56;9.60;96.70
62259;DHT22;48241;48.824;10.102;2023-11-21T01:28:22;9.60;96.50
62259;DHT22;48241;48.824;10.102;2023-11-21T01:30:48;9.50;96.90
62259;DHT22;48241;48.824;10.102;2023-11-21T01:33:13;9.50;96.70
62259;DHT22;48241;48.824;10.102;2023-11-21T01:35:43;9.60;97.30
62259;DHT22;48241;48.824;10.102;2023-11-21T01:38:08;10.00;97.30
62259;DHT22;48241;48.824;10.102;2023-11-21T01:40:34;9.80;97.00
62259;DHT22;48241;48.824;10.102;2023-11-21T01:43:00;9.50;97.00
62259;DHT22;48241;48.824;10.102;2023-11-21T01:45:27;10.00;97.00
62259;DHT22;48241;48.824;10.102;2023-11-21T01:47:54;9.50;97.50
62259;DHT22;48241;48.824;10.102;2023-11-21T01:50:20;9.70;97.40
62259;DHT22;48241;48.824;10.102;2023-11-21T01:52:47;9.50;97.10
62259;DHT22;48241;48.824;10.102;2023-11-21T01:55:14;11.10;97.80
62259;DHT22;48241;48.824;10.102;2023-11-21T01:57:43;10.60;97.60
62259;DHT22;48241;48.824;10.102;2023-11-21T02:00:09;10.00;97.00
62259;DHT22;48241;48.824;10.102;2023-11-21T02:02:45;10.00;96.60
62259;DHT22;48241;48.824;10.102;2023-11-21T02:05:11;10.00;96.50
62259;DHT22;48241;48.824;10.102;2023-11-21T02:07:38;10.20;96.00
62259;DHT22;48241;48.824;10.102;2023-11-21T02:10:04;10.50;95.90
62259;DHT22;48241;48.824;10.102;2023-11-21T02:12:30;10.00;96.10
62259;DHT22;48241;48.824;10.102;2023-11-21T02:14:55;10.60;96.30
62259;DHT22;48241;48.824;10.102;2023-11-21T02:17:21;10.10;96.40
62259;DHT22;48241;48.824;10.102;2023-11-21T02:19:46;10.40;96.00
62259;DHT22;48241;48.824;10.102;2023-11-21T02:22:12;10.40;96.10
62259;DHT22;48241;48.824;10.102;2023-11-21T02:24:40;10.50;96.10
62259;DHT22;48241;48.824;10.102;2023-11-21T02:27:07;10.60;95.90
62259;DHT22;48241;48.824;10.102;2023-11-21T02:29:33;11.10;95.50
62259;DHT22;48241;48.824;10.102;2023-11-21T02:31:58;10.70;95.40
62259;DHT22;48241;48.824;10.102;2023-11-21T02:34:25;10.60;95.80
62259;DHT22;48241;48.824;10.102;2023-11-21T02:36:50;10.80;95.70
62259;DHT22;48241;48.824;10.102;2023-11-21T02:39:16;11.10;95.70
62259;DHT22;48241;48.824;10.102;2023-11-21T02:41:42;10.70;95.80
62259;DHT22;48241;48.824;10.102;2023-11-21T02:44:08;10.70;95.90
62259;DHT22;48241;48.824;10.102;2023-11-21T02:46:33;10.90;95.60
62259;DHT22;48241;48.824;10.102;2023-11-21T02:49:00;11.30;95.10
62259;DHT22;48241;48.824;10.102;2023-11-21T02:51:25;11.10;95.50
62259;DHT22;48241;48.824;10.102;2023-11-21T02:53:51;10.80;95.30
62259;DHT22;48241;48.824;10.102;2023-11-21T02:56:16;11.30;95.30
62259;DHT22;48241;48.824;10.102;2023-11-21T02:58:43;11.00;95.10
62259;DHT22;48241;48.824;10.102;2023-11-21T03:01:09;11.20;95.60
62259;DHT22;48241;48.824;10.102;2023-11-21T03:03:34;10.90;95.10
62259;DHT22;48241;48.824;10.102;2023-11-21T03:06:02;11.70;95.20
62259;DHT22;48241;48.824;10.102;2023-11-21T03:08:28;10.80;95.10
62259;DHT22;48241;48.824;10.102;2023-11-21T03:10:53;11.20;95.40
62259;DHT22;48241;48.824;10.102;2023-11-21T03:13:19;11.00;95.10
62259;DHT22;48241;48.824;10.102;2023-11-21T03:15:44;11.30;95.00
62259;DHT22;48241;48.824;10.102;2023-11-21T03:18:10;11.20;95.00
62259;DHT22;48241;48.824;10.102;2023-11-21T03:20:35;11.20;95.30
62259;DHT22;48241;48.824;10.102;2023-11-21T03:23:01;11.30;95.00
62259;DHT22;48241;48.824;10.102;2023-11-21T03:25:27;11.30;95.10
62259;DHT22;48241;48.824;10.102;2023-11-21T03:27:52;11.20;94.30
62259;DHT22;48241;48.824;10.102;2023-11-21T03:30:18;11.40;94.40
62259;DHT22;48241;48.824;10.102;2023-11-21T03:32:44;11.60;94.70
62259;DHT22;48241;48.824;10.102;2023-11-21T03:35:09;11.00;94.90
62259;DHT22;48241;48.824;10.102;2023-11-21T03:37:35;10.80;95.40
62259;DHT22;48241;48.824;10.102;2023-11-21T03:40:00;10.30;96.00
62259;DHT22;48241;48.824;10.102;2023-11-21T03:42:26;10.60;96.50
62259;DHT22;48241;48.824;10.102;2023-11-21T03:44:52;10.50;96.40
62259;DHT22;48241;48.824;10.102;2023-11-21T03:47:17;10.60;96.60
62259;DHT22;48241;48.824;10.102;2023-11-21T03:49:44;10.60;96.20
62259;DHT22;48241;48.824;10.102;2023-11-21T03:52:10;10.70;95.90
62259;DHT22;48241;48.824;10.102;2023-11-21T03:54:36;10.80;96.10
62259;DHT22;48241;48.824;10.102;2023-11-21T03:57:01;11.10;96.30
62259;DHT22;48241;48.824;10.102;2023-11-21T03:59:27;10.60;95.90
62259;DHT22;48241;48.824;10.102;2023-11-21T04:01:54;10.80;95.80
62259;DHT22;48241;48.824;10.102;2023-11-21T04:04:20;10.90;95.70
62259;DHT22;48241;48.824;10.102;2023-11-21T04:06:45;11.10;95.90
62259;DHT22;48241;48.824;10.102;2023-11-21T04:09:11;10.70;95.70
62259;DHT22;48241;48.824;10.102;2023-11-21T04:11:36;10.90;96.10
62259;DHT22;48241;48.824;10.102;2023-11-21T04:14:01;10.90;96.00
62259;DHT22;48241;48.824;10.102;2023-11-21T04:16:27;11.70;95.90
62259;DHT22;48241;48.824;10.102;2023-11-21T04:18:52;11.00;95.30
62259;DHT22;48241;48.824;10.102;2023-11-21T04:21:18;10.90;95.30
62259;DHT22;48241;48.824;10.102;2023-11-21T04:23:43;11.10;95.50
62259;DHT22;48241;48.824;10.102;2023-11-21T04:26:09;10.80;95.20
62259;DHT22;48241;48.824;10.102;2023-11-21T04:28:34;10.90;95.60
62259;DHT22;48241;48.824;10.102;2023-11-21T04:31:00;10.90;95.60
62259;DHT22;48241;48.824;10.102;2023-11-21T04:33:25;10.90;95.40
62259;DHT22;48241;48.824;10.102;2023-11-21T04:35:51;11.00;95.40
62259;DHT22;48241;48.824;10.102;2023-11-21T04:38:17;10.90;95.20
62259;DHT22;48241;48.824;10.102;2023-11-21T04:40:42;10.90;95.20
62259;DHT22;48241;48.824;10.102;2023-11-21T04:43:08;11.00;95.80
62259;DHT22;48241;48.824;10.102;2023-11-21T04:45:34;11.10;96.10
62259;DHT22;48241;48.824;10.102;2023-11-21T04:47:59;10.90;95.70
62259;DHT22;48241;48.824;10.102;2023-11-21T04:50:25;11.00;95.50
62259;DHT22;48241;48.824;10.102;2023-11-21T04:52:52;11.10;95.00
62259;DHT22;48241;48.824;10.102;2023-11-21T04:55:18;11.10;95.50
62259;DHT22;48241;48.824;10.102;2023-11-21T04:57:43;11.40;95.40
62259;DHT22;48241;48.824;10.102;2023-11-21T05:00:09;11.00;95.80
62259;DHT22;48241;48.824;10.102;2023-11-21T05:02:35;10.80;95.80
62259;DHT22;48241;48.824;10.102;2023-11-21T05:05:01;11.50;95.80
62259;DHT22;48241;48.824;10.102;2023-11-21T05:07:27;11.40;95.60
62259;DHT22;48241;48.824;10.102;2023-11-21T05:09:54;11.10;95.20
62259;DHT22;48241;48.824;10.102;2023-11-21T05:12:21;11.10;95.30
62259;DHT22;48241;48.824;10.102;2023-11-21T05:14:47;11.00;95.30
62259;DHT22;48241;48.824;10.102;2023-11-21T05:17:14;11.20;95.30
62259;DHT22;48241;48.824;10.102;2023-11-21T05:19:39;11.00;95.10
62259;DHT22;48241;48.824;10.102;2023-11-21T05:22:05;11.00;94.80
62259;DHT22;48241;48.824;10.102;2023-11-21T05:24:31;11.30;95.20
62259;DHT22;48241;48.824;10.102;2023-11-21T05:26:56;11.00;95.20
62259;DHT22;48241;48.824;10.102;2023-11-21T05:29:23;11.00;95.30
62259;DHT22;48241;48.824;10.102;2023-11-21T05:31:48;11.00;95.60
62259;DHT22;48241;48.824;10.102;2023-11-21T05:34:14;11.60;95.40
62259;DHT22;48241;48.824;10.102;2023-11-21T05:36:40;12.40;95.60
62259;DHT22;48241;48.824;10.102;2023-11-21T05:39:06;11.20;95.10
62259;DHT22;48241;48.824;10.102;2023-11-21T05:41:32;11.40;95.10
62259;DHT22;48241;48.824;10.102;2023-11-21T05:43:57;11.60;95.00
62259;DHT22;48241;48.824;10.102;2023-11-21T05:46:22;11.90;95.60
62259;DHT22;48241;48.824;10.102;2023-11-21T05:48:48;11.60;95.20
62259;DHT22;48241;48.824;10.102;2023-11-21T05:51:13;11.40;95.10
62259;DHT22;48241;48.824;10.102;2023-11-21T05:53:39;11.50;95.00
62259;DHT22;48241;48.824;10.102;2023-11-21T05:56:04;11.90;95.30
62259;DHT22;48241;48.824;10.102;2023-11-21T05:58:30;11.20;95.00
62259;DHT22;48241;48.824;10.102;2023-11-21T06:00:55;11.40;94.70
62259;DHT22;48241;48.824;10.102;2023-11-21T06:03:21;10.80;94.70
62259;DHT22;48241;48.824;10.102;2023-11-21T06:05:47;10.80;95.70
62259;DHT22;48241;48.824;10.102;2023-11-21T06:08:12;11.00;96.10
62259;DHT22;48241;48.824;10.102;2023-11-21T06:10:38;10.90;95.90
62259;DHT22;48241;48.824;10.102;2023-11-21T06:13:04;10.80;96.10
62259;DHT22;48241;48.824;10.102;2023-11-21T06:15:30;10.90;95.80
62259;DHT22;48241;48.824;10.102;2023-11-21T06:17:55;11.00;95.60
62259;DHT22;48241;48.824;10.102;2023-11-21T06:20:21;11.40;95.20
62259;DHT22;48241;48.824;10.102;2023-11-21T06:22:48;11.10;95.20
62259;DHT22;48241;48.824;10.102;2023-11-21T06:25:15;11.10;95.10
62259;DHT22;48241;48.824;10.102;2023-11-21T06:27:41;11.10;95.40
62259;DHT22;48241;48.824;10.102;2023-11-21T06:30:07;11.20;95.70
62259;DHT22;48241;48.824;10.102;2023-11-21T06:32:34;11.10;95.20
62259;DHT22;48241;48.824;10.102;2023-11-21T06:35:01;11.30;95.20
62259;DHT22;48241;48.824;10.102;2023-11-21T06:37:28;11.30;95.10
62259;DHT22;48241;48.824;10.102;2023-11-21T06:39:53;11.40;95.10
62259;DHT22;48241;48.824;10.102;2023-11-21T06:42:19;11.30;95.20
62259;DHT22;48241;48.824;10.102;2023-11-21T06:44:46;11.90;95.10
62259;DHT22;48241;48.824;10.102;2023-11-21T06:47:11;11.40;94.90
62259;DHT22;48241;48.824;10.102;2023-11-21T06:49:37;11.50;95.10
62259;DHT22;48241;48.824;10.102;2023-11-21T06:52:04;11.30;94.90
62259;DHT22;48241;48.824;10.102;2023-11-21T06:54:30;11.20;94.80
62259;DHT22;48241;48.824;10.102;2023-11-21T06:56:56;11.30;95.30
62259;DHT22;48241;48.824;10.102;2023-11-21T06:59:22;11.20;94.90
62259;DHT22;48241;48.824;10.102;2023-11-21T07:01:47;11.70;95.30
62259;DHT22;48241;48.824;10.102;2023-11-21T07:04:13;11.40;95.80
62259;DHT22;48241;48.824;10.102;2023-11-21T07:06:38;11.00;95.80
62259;DHT22;48241;48.824;10.102;2023-11-21T07:09:04;11.30;95.60
62259;DHT22;48241;48.824;10.102;2023-11-21T07:11:29;11.30;95.70
62259;DHT22;48241;48.824;10.102;2023-11-21T07:13:55;11.20;95.50
62259;DHT22;48241;48.824;10.102;2023-11-21T07:16:20;11.60;95.40
62259;DHT22;48241;48.824;10.102;2023-11-21T07:18:46;11.40;95.10
62259;DHT22;48241;48.824;10.102;2023-11-21T07:21:11;11.80;95.10
62259;DHT22;48241;48.824;10.102;2023-11-21T07:23:41;11.60;94.80
62259;DHT22;48241;48.824;10.102;2023-11-21T07:26:06;11.70;94.80
62259;DHT22;48241;48.824;10.102;2023-11-21T07:28:34;11.50;94.70
62259;DHT22;48241;48.824;10.102;2023-11-21T07:31:00;11.80;94.80
62259;DHT22;48241;48.824;10.102;2023-11-21T07:33:26;11.70;95.00
62259;DHT22;48241;48.824;10.102;2023-11-21T07:35:51;11.80;94.90
62259;DHT22;48241;48.824;10.102;2023-11-21T07:38:17;11.80;95.00
62259;DHT22;48241;48.824;10.102;2023-11-21T07:40:43;12.10;94.80
62259;DHT22;48241;48.824;10.102;2023-11-21T07:43:08;12.00;94.80
62259;DHT22;48241;48.824;10.102;2023-11-21T07:45:34;11.80;94.40
62259;DHT22;48241;48.824;10.102;2023-11-21T07:47:59;12.00;94.50
62259;DHT22;48241;48.824;10.102;2023-11-21T07:50:26;12.00;94.20
62259;DHT22;48241;48.824;10.102;2023-11-21T07:52:52;12.30;94.60
62259;DHT22;48241;48.824;10.102;2023-11-21T07:55:19;12.20;94.50
62259;DHT22;48241;48.824;10.102;2023-11-21T07:57:45;12.20;94.30
62259;DHT22;48241;48.824;10.102;2023-11-21T08:00:10;11.90;94.20
62259;DHT22;48241;48.824;10.102;2023-11-21T08:02:38;11.90;94.40
62259;DHT22;48241;48.824;10.102;2023-11-21T08:05:04;12.00;94.40
62259;DHT22;48241;48.824;10.102;2023-11-21T08:07:30;12.10;94.30
62259;DHT22;48241;48.824;10.102;2023-11-21T08:09:56;12.30;94.50
62259;DHT22;48241;48.824;10.102;2023-11-21T08:12:22;12.70;94.60
62259;DHT22;48241;48.824;10.102;2023-11-21T08:14:47;12.30;94.20
62259;DHT22;48241;48.824;10.102;2023-11-21T08:17:12;12.40;93.90
62259;DHT22;48241;48.824;10.102;2023-11-21T08:19:39;12.50;93.50
62259;DHT22;48241;48.824;10.102;2023-11-21T08:22:04;12.60;93.70
62259;DHT22;48241;48.824;10.102;2023-11-21T08:24:33;12.50;93.90
62259;DHT22;48241;48.824;10.102;2023-11-21T08:26:59;12.50;93.50
62259;DHT22;48241;48.824;10.102;2023-11-21T08:29:24;12.40;93.70
62259;DHT22;48241;48.824;10.102;2023-11-21T08:31:52;12.40;93.60
62259;DHT22;48241;48.824;10.102;2023-11-21T08:34:18;12.70;94.10
62259;DHT22;48241;48.824;10.102;2023-11-21T08:36:43;12.50;94.40
62259;DHT22;48241;48.824;10.102;2023-11-21T08:39:09;12.70;94.10
62259;DHT22;48241;48.824;10.102;2023-11-21T08:41:35;12.70;93.70
62259;DHT22;48241;48.824;10.102;2023-11-21T08:44:02;12.90;93.80
62259;DHT22;48241;48.824;10.102;2023-11-21T08:46:32;13.20;93.30
62259;DHT22;48241;48.824;10.102;2023-11-21T08:49:00;13.70;93.10
62259;DHT22;48241;48.824;10.102;2023-11-21T08:51:26;13.50;93.10
62259;DHT22;48241;48.824;10.102;2023-11-21T08:53:51;13.70;93.20
62259;DHT22;48241;48.824;10.102;2023-11-21T08:56:17;13.70;92.10
62259;DHT22;48241;48.824;10.102;2023-11-21T08:58:44;13.60;92.10
62259;DHT22;48241;48.824;10.102;2023-11-21T09:01:12;13.70;91.30
62259;DHT22;48241;48.824;10.102;2023-11-21T09:03:40;13.70;91.60
62259;DHT22;48241;48.824;10.102;2023-11-21T09:06:05;14.00;91.80
62259;DHT22;48241;48.824;10.102;2023-11-21T09:08:31;14.30;91.70
62259;DHT22;48241;48.824;10.102;2023-11-21T09:10:57;14.30;91.00
62259;DHT22;48241;48.824;10.102;2023-11-21T09:13:23;14.60;90.20
62259;DHT22;48241;48.824;10.102;2023-11-21T09:15:50;14.50;88.80
62259;DHT22;48241;48.824;10.102;2023-11-21T09:18:16;14.40;89.70
62259;DHT22;48241;48.824;10.102;2023-11-21T09:20:42;14.10;90.00
62259;DHT22;48241;48.824;10.102;2023-11-21T09:23:09;14.10;90.20
62259;DHT22;48241;48.824;10.102;2023-11-21T09:25:35;14.00;90.30
62259;DHT22;48241;48.824;10.102;2023-11-21T09:28:03;14.00;90.30
62259;DHT22;48241;48.824;10.102;2023-11-21T09:30:33;13.90;90.40
62259;DHT22;48241;48.824;10.102;2023-11-21T09:32:59;13.80;90.40
62259;DHT22;48241;48.824;10.102;2023-11-21T09:35:25;13.90;90.20
62259;DHT22;48241;48.824;10.102;2023-11-21T09:37:53;14.00;90.30
62259;DHT22;48241;48.824;10.102;2023-11-21T09:40:20;14.10;89.80
62259;DHT22;48241;48.824;10.102;2023-11-21T09:42:54;14.30;90.00
62259;DHT22;48241;48.824;10.102;2023-11-21T09:45:27;14.50;89.60
62259;DHT22;48241;48.824;10.102;2023-11-21T09:47:54;14.50;90.00
62259;DHT22;48241;48.824;10.102;2023-11-21T09:50:23;14.30;89.10
62259;DHT22;48241;48.824;10.102;2023-11-21T09:52:52;14.50;88.30
62259;DHT22;48241;48.824;10.102;2023-11-21T09:55:19;14.50;89.60
62259;DHT22;48241;48.824;10.102;2023-11-21T09:57:49;14.50;88.40
62259;DHT22;48241;48.824;10.102;2023-11-21T10:00:15;14.30;89.40
62259;DHT22;48241;48.824;10.102;2023-11-21T10:02:43;14.40;89.40
62259;DHT22;48241;48.824;10.102;2023-11-21T10:05:09;14.10;89.20
62259;DHT22;48241;48.824;10.102;2023-11-21T10:07:37;14.10;88.30
62259;DHT22;48241;48.824;10.102;2023-11-21T10:10:05;14.40;88.40
62259;DHT22;48241;48.824;10.102;2023-11-21T10:12:33;14.50;87.70
62259;DHT22;48241;48.824;10.102;2023-11-21T10:15:00;14.30;88.30
62259;DHT22;48241;48.824;10.102;2023-11-21T10:17:28;14.40;87.60
62259;DHT22;48241;48.824;10.102;2023-11-21T10:19:57;14.60;86.70
62259;DHT22;48241;48.824;10.102;2023-11-21T10:22:22;14.70;87.60
62259;DHT22;48241;48.824;10.102;2023-11-21T10:24:49;14.90;87.10
62259;DHT22;48241;48.824;10.102;2023-11-21T10:27:15;15.10;85.60
62259;DHT22;48241;48.824;10.102;2023-11-21T10:29:40;15.20;84.70
62259;DHT22;48241;48.824;10.102;2023-11-21T10:32:09;15.00;84.70
62259;DHT22;48241;48.824;10.102;2023-11-21T10:34:37;14.90;84.70
62259;DHT22;48241;48.824;10.102;2023-11-21T10:37:12;14.90;84.80
62259;DHT22;48241;48.824;10.102;2023-11-21T10:39:38;14.90;84.20
62259;DHT22;48241;48.824;10.102;2023-11-21T10:42:04;14.70;84.60
62259;DHT22;48241;48.824;10.102;2023-11-21T10:44:32;14.50;84.20
62259;DHT22;48241;48.824;10.102;2023-11-21T10:46:57;14.50;85.80
62259;DHT22;48241;48.824;10.102;2023-11-21T10:49:26;14.30;85.80
62259;DHT22;48241;48.824;10.102;2023-11-21T10:51:54;14.30;86.00
62259;DHT22;48241;48.824;10.102;2023-11-21T10:54:21;14.30;85.20
62259;DHT22;48241;48.824;10.102;2023-11-21T10:56:50;14.30;85.90
62259;DHT22;48241;48.824;10.102;2023-11-21T10:59:18;14.30;85.80
62259;DHT22;48241;48.824;10.102;2023-11-21T11:01:46;14.60;87.10
62259;DHT22;48241;48.824;10.102;2023-11-21T11:04:12;14.80;85.20
62259;DHT22;48241;48.824;10.102;2023-11-21T11:06:50;14.80;83.70
62259;DHT22;48241;48.824;10.102;2023-11-21T11:09:16;14.90;83.90
62259;DHT22;48241;48.824;10.102;2023-11-21T11:11:42;15.20;84.00
62259;DHT22;48241;48.824;10.102;2023-11-21T11:14:13;15.10;81.20
62259;DHT22;48241;48.824;10.102;2023-11-21T11:17:13;15.50;81.10
62259;DHT22;48241;48.824;10.102;2023-11-21T11:20:05;15.70;82.00
62259;DHT22;48241;48.824;10.102;2023-11-21T11:22:47;15.70;81.00
62259;DHT22;48241;48.824;10.102;2023-11-21T11:25:33;15.90;81.20
62259;DHT22;48241;48.824;10.102;2023-11-21T11:28:11;15.90;81.30
62259;DHT22;48241;48.824;10.102;2023-11-21T11:30:41;15.70;80.70
62259;DHT22;48241;48.824;10.102;2023-11-21T11:36:06;15.40;81.00
62259;DHT22;48241;48.824;10.102;2023-11-21T11:38:33;15.60;80.60
62259;DHT22;48241;48.824;10.102;2023-11-21T11:41:27;15.50;80.80
62259;DHT22;48241;48.824;10.102;2023-11-21T11:43:55;15.30;80.90
62259;DHT22;48241;48.824;10.102;2023-11-21T11:46:20;15.20;82.40
62259;DHT22;48241;48.824;10.102;2023-11-21T11:48:49;15.10;81.20
62259;DHT22;48241;48.824;10.102;2023-11-21T11:51:28;15.20;82.00
62259;DHT22;48241;48.824;10.102;2023-11-21T11:53:54;14.90;83.00
62259;DHT22;48241;48.824;10.102;2023-11-21T11:58:46;15.10;82.00
62259;DHT22;48241;48.824;10.102;2023-11-21T12:01:12;15.20;82.70
62259;DHT22;48241;48.824;10.102;2023-11-21T12:03:38;15.30;83.50
62259;DHT22;48241;48.824;10.102;2023-11-21T12:06:04;15.10;81.80
62259;DHT22;48241;48.824;10.102;2023-11-21T12:08:32;15.20;81.80
62259;DHT22;48241;48.824;10.102;2023-11-21T12:10:58;15.00;81.70
62259;DHT22;48241;48.824;10.102;2023-11-21T12:13:23;15.00;82.90
62259;DHT22;48241;48.824;10.102;2023-11-21T12:15:49;15.10;82.90
62259;DHT22;48241;48.824;10.102;2023-11-21T12:18:16;15.00;83.00
62259;DHT22;48241;48.824;10.102;2023-11-21T12:20:42;14.90;80.70
62259;DHT22;48241;48.824;10.102;2023-11-21T12:23:12;14.80;81.40
62259;DHT22;48241;48.824;10.102;2023-11-21T12:25:41;14.60;82.40
62259;DHT22;48241;48.824;10.102;2023-11-21T12:28:10;14.30;82.80
62259;DHT22;48241;48.824;10.102;2023-11-21T12:30:37;14.40;83.00
62259;DHT22;48241;48.824;10.102;2023-11-21T12:33:03;14.40;83.70
62259;DHT22;48241;48.824;10.102;2023-11-21T12:35:34;14.30;84.20
62259;DHT22;48241;48.824;10.102;2023-11-21T12:38:01;14.40;84.60
62259;DHT22;48241;48.824;10.102;2023-11-21T12:40:28;14.20;84.40
62259;DHT22;48241;48.824;10.102;2023-11-21T12:42:59;14.20;84.60
62259;DHT22;48241;48.824;10.102;2023-11-21T12:45:27;14.10;84.40
62259;DHT22;48241;48.824;10.102;2023-11-21T12:47:56;14.20;85.80
62259;DHT22;48241;48.824;10.102;2023-11-21T12:50:25;14.00;85.40
62259;DHT22;48241;48.824;10.102;2023-11-21T12:52:59;14.00;85.60
62259;DHT22;48241;48.824;10.102;2023-11-21T12:55:25;14.00;86.40
62259;DHT22;48241;48.824;10.102;2023-11-21T12:57:54;14.00;86.50
62259;DHT22;48241;48.824;10.102;2023-11-21T13:00:27;13.90;87.40
62259;DHT22;48241;48.824;10.102;2023-11-21T13:02:55;13.90;87.40
62259;DHT22;48241;48.824;10.102;2023-11-21T13:05:26;14.00;88.50
62259;DHT22;48241;48.824;10.102;2023-11-21T13:07:52;13.90;89.10
62259;DHT22;48241;48.824;10.102;2023-11-21T13:10:29;14.40;87.30
62259;DHT22;48241;48.824;10.102;2023-11-21T13:12:59;14.50;86.60
62259;DHT22;48241;48.824;10.102;2023-11-21T13:15:26;14.80;86.50
62259;DHT22;48241;48.824;10.102;2023-11-21T13:17:52;14.70;85.00
62259;DHT22;48241;48.824;10.102;2023-11-21T13:20:19;14.40;86.70
62259;DHT22;48241;48.824;10.102;2023-11-21T20:21:30;11.40;93.60
62259;DHT22;48241;48.824;10.102;2023-11-21T20:23:58;11.40;93.70
62259;DHT22;48241;48.824;10.102;2023-11-21T20:26:24;11.40;93.40
62259;DHT22;48241;48.824;10.102;2023-11-21T20:28:50;11.70;93.60
62259;DHT22;48241;48.824;10.102;2023-11-21T20:31:17;11.40;93.10
62259;DHT22;48241;48.824;10.102;2023-11-21T20:33:43;11.70;93.30
62259;DHT22;48241;48.824;10.102;2023-11-21T20:36:09;11.70;93.50
62259;DHT22;48241;48.824;10.102;2023-11-21T20:38:34;11.60;93.40
62259;DHT22;48241;48.824;10.102;2023-11-21T20:41:00;11.60;93.20
62259;DHT22;48241;48.824;10.102;2023-11-21T20:43:25;11.60;93.10
62259;DHT22;48241;48.824;10.102;2023-11-21T20:45:51;11.70;93.20
62259;DHT22;48241;48.824;10.102;2023-11-21T20:48:17;11.50;93.20
62259;DHT22;48241;48.824;10.102;2023-11-21T20:50:45;11.60;93.10
62259;DHT22;48241;48.824;10.102;2023-11-21T20:53:10;11.60;93.20
62259;DHT22;48241;48.824;10.102;2023-11-21T20:55:40;11.90;93.40
62259;DHT22;48241;48.824;10.102;2023-11-21T20:58:05;11.40;93.30
62259;DHT22;48241;48.824;10.102;2023-11-21T21:00:32;11.50;92.90
62259;DHT22;48241;48.824;10.102;2023-11-21T21:03:01;11.80;93.30
62259;DHT22;48241;48.824;10.102;2023-11-21T21:05:27;11.40;93.30
62259;DHT22;48241;48.824;10.102;2023-11-21T21:07:53;11.50;93.20
62259;DHT22;48241;48.824;10.102;2023-11-21T21:10:23;11.40;93.00
62259;DHT22;48241;48.824;10.102;2023-11-21T21:12:51;11.30;93.40
62259;DHT22;48241;48.824;10.102;2023-11-21T21:15:16;11.60;93.50
62259;DHT22;48241;48.824;10.102;2023-11-21T21:17:42;11.10;93.70
62259;DHT22;48241;48.824;10.102;2023-11-21T21:20:08;11.10;93.80
62259;DHT22;48241;48.824;10.102;2023-11-21T21:22:35;11.20;93.60
62259;DHT22;48241;48.824;10.102;2023-11-21T21:25:02;11.60;93.60
62259;DHT22;48241;48.824;10.102;2023-11-21T21:27:27;11.40;93.50
62259;DHT22;48241;48.824;10.102;2023-11-21T21:29:53;11.60;93.70
62259;DHT22;48241;48.824;10.102;2023-11-21T21:32:18;11.50;93.50
62259;DHT22;48241;48.824;10.102;2023-11-21T21:34:44;11.40;93.50
62259;DHT22;48241;48.824;10.102;2023-11-21T21:37:09;11.60;93.20
62259;DHT22;48241;48.824;10.102;2023-11-21T21:39:35;11.90;93.30
62259;DHT22;48241;48.824;10.102;2023-11-21T21:42:00;11.50;93.20
62259;DHT22;48241;48.824;10.102;2023-11-21T21:44:26;11.70;93.20
62259;DHT22;48241;48.824;10.102;2023-11-21T21:46:51;11.60;93.10
62259;DHT22;48241;48.824;10.102;2023-11-21T21:49:17;11.90;93.20
62259;DHT22;48241;48.824;10.102;2023-11-21T21:51:42;11.70;93.20
62259;DHT22;48241;48.824;10.102;2023-11-21T21:54:08;11.60;93.00
62259;DHT22;48241;48.824;10.102;2023-11-21T21:56:35;11.50;93.00
62259;DHT22;48241;48.824;10.102;2023-11-21T21:59:01;11.60;93.20
62259;DHT22;48241;48.824;10.102;2023-11-21T22:01:26;11.40;93.30
62259;DHT22;48241;48.824;10.102;2023-11-21T22:03:52;11.90;93.40
62259;DHT22;48241;48.824;10.102;2023-11-21T22:06:18;11.50;93.30
62259;DHT22;48241;48.824;10.102;2023-11-21T22:08:45;11.70;93.10
62259;DHT22;48241;48.824;10.102;2023-11-21T22:11:10;11.50;93.00
62259;DHT22;48241;48.824;10.102;2023-11-21T22:13:36;11.50;93.20
62259;DHT22;48241;48.824;10.102;2023-11-21T22:16:01;11.50;93.10
62259;DHT22;48241;48.824;10.102;2023-11-21T22:18:27;11.40;93.20